createdAt,value
2023-01-09T00:01:19.472Z,64.80
2023-01-09T00:03:47.401Z,65.02
2023-01-09T00:06:15.270Z,64.92
2023-01-09T00:08:43.166Z,64.58
2023-01-09T00:11:11.095Z,65.31
2023-01-09T00:13:40.712Z,65.15
2023-01-09T00:16:10.481Z,65.33
2023-01-09T00:18:39.445Z,65.15
2023-01-09T00:21:09.383Z,65.25
2023-01-09T00:23:37.906Z,65.38
2023-01-09T00:26:08.312Z,65.49
2023-01-09T00:28:37.169Z,65.58
2023-01-09T00:31:08.881Z,65.24
2023-01-09T00:33:39.684Z,65.08
2023-01-09T00:36:08.826Z,65.37
2023-01-09T00:38:37.284Z,64.85
2023-01-09T00:41:07.138Z,64.96
2023-01-09T00:43:39.253Z,64.91
2023-01-09T00:46:09.504Z,65.10
2023-01-09T00:48:42.723Z,65.22
2023-01-09T00:51:10.643Z,65.31
2023-01-09T00:53:42.920Z,65.57
2023-01-09T00:56:14.947Z,65.71
2023-01-09T00:58:43.527Z,65.12
2023-01-09T01:01:13.377Z,64.86
2023-01-09T01:03:41.245Z,65.44
2023-01-09T01:06:27.463Z,65.48
2023-01-09T01:08:56.051Z,65.21
2023-01-09T01:11:24.495Z,65.32
2023-01-09T01:13:53.316Z,65.03
2023-01-09T01:16:22.594Z,64.82
2023-01-09T01:18:50.708Z,64.71
2023-01-09T01:21:19.514Z,64.91
2023-01-09T01:23:47.886Z,65.01
2023-01-09T01:26:17.118Z,64.55
2023-01-09T01:28:46.385Z,64.51
2023-01-09T01:31:19.294Z,64.37
2023-01-09T01:33:49.058Z,64.70
2023-01-09T01:36:17.916Z,64.30
2023-01-09T01:38:46.886Z,63.98
2023-01-09T01:41:30.068Z,64.04
2023-01-09T01:44:00.531Z,64.31
2023-01-09T01:46:28.881Z,63.89
2023-01-09T01:49:03.084Z,64.12
2023-01-09T01:51:33.680Z,64.28
2023-01-09T01:54:07.628Z,64.36
2023-01-09T01:56:39.347Z,63.69
2023-01-09T01:59:13.271Z,63.98
2023-01-09T02:01:45.395Z,63.95
2023-01-09T02:04:14.990Z,63.48
2023-01-09T02:06:43.501Z,63.55
2023-01-09T02:09:15.734Z,63.95
2023-01-09T02:11:45.885Z,63.88
2023-01-09T02:14:13.930Z,63.98
2023-01-09T02:16:53.033Z,64.22
2023-01-09T02:20:00.157Z,64.08
2023-01-09T02:22:37.404Z,64.05
2023-01-09T02:25:31.193Z,63.98
2023-01-09T02:28:22.846Z,64.31
2023-01-09T02:30:58.184Z,64.20
2023-01-09T02:33:35.717Z,64.24
2023-01-09T02:36:13.150Z,63.68
2023-01-09T02:38:51.132Z,64.12
2023-01-09T02:41:24.881Z,63.94
2023-01-09T02:44:19.979Z,63.87
2023-01-09T02:46:49.459Z,64.25
2023-01-09T02:49:18.451Z,63.78
2023-01-09T02:51:53.373Z,63.81
2023-01-09T02:54:30.404Z,64.00
2023-01-09T02:57:18.168Z,63.96
2023-01-09T02:59:58.438Z,63.85
2023-01-09T03:02:44.153Z,63.83
2023-01-09T03:05:14.267Z,63.51
2023-01-09T03:07:47.390Z,63.56
2023-01-09T03:10:20.649Z,64.00
2023-01-09T03:12:54.176Z,63.66
2023-01-09T03:15:25.676Z,63.75
2023-01-09T03:17:57.536Z,63.61
2023-01-09T03:20:28.763Z,63.90
2023-01-09T03:22:58.568Z,63.40
2023-01-09T03:25:27.576Z,63.20
2023-01-09T03:27:59.186Z,63.46
2023-01-09T03:30:28.690Z,63.57
2023-01-09T03:32:58.825Z,63.52
2023-01-09T03:35:27.780Z,63.48
2023-01-09T03:37:55.831Z,63.51
2023-01-09T03:40:23.728Z,63.46
2023-01-09T03:42:52.058Z,63.85
2023-01-09T03:45:19.826Z,63.21
2023-01-09T03:47:47.787Z,63.57
2023-01-09T03:50:17.971Z,63.81
2023-01-09T03:52:45.892Z,63.51
2023-01-09T03:55:15.523Z,63.73
2023-01-09T03:57:44.243Z,63.79
2023-01-09T04:00:13.324Z,63.36
2023-01-09T04:02:41.563Z,63.45
2023-01-09T04:05:10.546Z,63.40
2023-01-09T04:07:40.358Z,63.64
2023-01-09T04:10:08.778Z,63.61
2023-01-09T04:12:37.123Z,63.33
2023-01-09T04:15:05.450Z,63.69
2023-01-09T04:17:33.437Z,63.74
2023-01-09T04:20:01.807Z,63.33
2023-01-09T04:22:31.421Z,63.24
2023-01-09T04:25:00.814Z,63.31
2023-01-09T04:27:29.262Z,63.27
2023-01-09T04:29:57.063Z,62.96
2023-01-09T04:32:27.587Z,63.09
2023-01-09T04:34:57.484Z,63.45
2023-01-09T04:37:25.767Z,63.17
2023-01-09T04:39:56.005Z,63.07
2023-01-09T04:42:26.030Z,63.15
2023-01-09T04:44:54.424Z,63.08
2023-01-09T04:47:23.822Z,63.12
2023-01-09T04:49:52.372Z,62.76
2023-01-09T04:52:20.459Z,62.97
2023-01-09T04:54:48.415Z,62.75
2023-01-09T04:57:16.781Z,62.59
2023-01-09T04:59:46.224Z,62.71
2023-01-09T05:02:14.215Z,62.57
2023-01-09T05:04:43.000Z,62.14
2023-01-09T05:07:11.323Z,62.41
2023-01-09T05:09:39.150Z,62.37
2023-01-09T05:12:08.424Z,62.87
2023-01-09T05:14:36.245Z,62.21
2023-01-09T05:17:07.022Z,61.73
2023-01-09T05:19:36.144Z,61.96
2023-01-09T05:22:03.983Z,62.17
2023-01-09T05:24:31.872Z,61.64
2023-01-09T05:27:00.193Z,61.75
2023-01-09T05:29:28.054Z,62.84
2023-01-09T05:31:55.973Z,62.19
2023-01-09T05:34:26.165Z,62.51
2023-01-09T05:36:53.994Z,62.37
2023-01-09T05:39:21.836Z,61.69
2023-01-09T05:41:50.054Z,62.30
2023-01-09T05:44:18.063Z,62.20
2023-01-09T05:46:46.067Z,62.32
2023-01-09T05:49:14.515Z,62.11
2023-01-09T05:51:43.684Z,62.76
2023-01-09T05:54:11.615Z,62.60
2023-01-09T05:56:40.105Z,62.77
2023-01-09T05:59:07.977Z,62.31
2023-01-09T06:01:35.908Z,62.21
2023-01-09T06:04:04.456Z,62.37
2023-01-09T06:06:32.636Z,62.45
2023-01-09T06:09:03.578Z,62.30
2023-01-09T06:11:32.104Z,62.48
2023-01-09T06:13:59.975Z,62.37
2023-01-09T06:16:28.498Z,62.44
2023-01-09T06:18:57.114Z,62.67
2023-01-09T06:21:25.043Z,62.48
2023-01-09T06:23:52.825Z,62.64
2023-01-09T06:26:22.604Z,62.79
2023-01-09T06:28:50.526Z,62.65
2023-01-09T06:31:18.823Z,63.12
2023-01-09T06:33:47.148Z,62.65
2023-01-09T06:36:15.419Z,62.96
2023-01-09T06:38:43.442Z,63.00
2023-01-09T06:41:11.504Z,62.54
2023-01-09T06:43:41.102Z,62.56
2023-01-09T06:46:09.220Z,62.53
2023-01-09T06:48:37.550Z,62.80
2023-01-09T06:51:05.665Z,62.77
2023-01-09T06:53:35.032Z,62.30
2023-01-09T06:56:04.263Z,62.57
2023-01-09T06:58:32.100Z,62.32
2023-01-09T07:01:01.479Z,62.58
2023-01-09T07:03:29.377Z,62.50
2023-01-09T07:05:57.653Z,62.35
2023-01-09T07:08:25.520Z,62.61
2023-01-09T07:10:53.737Z,62.63
2023-01-09T07:13:21.892Z,62.26
2023-01-09T07:15:50.310Z,62.43
2023-01-09T07:18:20.283Z,62.41
2023-01-09T07:20:48.468Z,62.90
2023-01-09T07:23:18.096Z,62.38
2023-01-09T07:25:46.846Z,62.30
2023-01-09T07:28:14.590Z,62.64
2023-01-09T07:30:42.629Z,62.62
2023-01-09T07:33:11.799Z,62.72
2023-01-09T07:35:40.923Z,62.85
2023-01-09T07:38:08.731Z,62.77
2023-01-09T07:40:37.089Z,62.90
2023-01-09T07:43:04.999Z,63.57
2023-01-09T07:45:32.720Z,63.34
2023-01-09T07:48:00.985Z,63.26
2023-01-09T07:50:28.989Z,63.41
2023-01-09T07:52:58.234Z,63.51
2023-01-09T07:55:25.980Z,63.82
2023-01-09T07:57:53.791Z,63.73
2023-01-09T08:00:22.328Z,63.61
2023-01-09T08:02:53.444Z,63.79
2023-01-09T08:05:21.597Z,63.55
2023-01-09T08:07:50.988Z,63.65
2023-01-09T08:10:21.811Z,63.64
2023-01-09T08:12:50.928Z,63.65
2023-01-09T08:15:19.634Z,63.43
2023-01-09T08:17:48.346Z,63.54
2023-01-09T08:20:18.429Z,63.16
2023-01-09T08:22:52.177Z,63.34
2023-01-09T08:25:21.457Z,62.88
2023-01-09T08:27:49.510Z,63.27
2023-01-09T08:30:19.038Z,63.30
2023-01-09T08:32:50.498Z,63.37
2023-01-09T08:35:19.495Z,62.73
2023-01-09T08:37:47.637Z,63.07
2023-01-09T08:40:16.925Z,62.74
2023-01-09T08:43:04.194Z,62.64
2023-01-09T08:45:55.499Z,62.72
2023-01-09T08:48:23.670Z,62.38
2023-01-09T08:50:52.208Z,62.06
2023-01-09T08:53:19.995Z,62.14
2023-01-09T08:55:48.193Z,62.36
2023-01-09T08:58:17.539Z,61.74
2023-01-09T09:00:45.288Z,62.17
2023-01-09T09:03:13.928Z,61.85
2023-01-09T09:05:41.864Z,61.78
2023-01-09T09:08:09.708Z,61.82
2023-01-09T09:10:37.781Z,61.90
2023-01-09T09:13:05.684Z,61.93
2023-01-09T09:15:35.339Z,61.87
2023-01-09T09:18:07.411Z,61.98
2023-01-09T09:20:37.659Z,61.76
2023-01-09T09:23:08.225Z,62.19
2023-01-09T09:25:38.280Z,62.24
2023-01-09T09:28:06.724Z,62.32
2023-01-09T09:30:36.088Z,62.26
2023-01-09T09:33:04.622Z,62.07
2023-01-09T09:35:33.815Z,62.18
2023-01-09T09:38:05.484Z,62.23
2023-01-09T09:40:52.911Z,61.99
2023-01-09T09:43:54.728Z,61.65
2023-01-09T09:46:34.092Z,61.81
2023-01-09T09:49:07.689Z,61.74
2023-01-09T09:51:56.686Z,61.77
2023-01-09T09:54:31.218Z,61.18
2023-01-09T09:57:01.849Z,61.94
2023-01-09T09:59:33.490Z,61.87
2023-01-09T10:02:11.650Z,61.63
2023-01-09T10:04:47.121Z,63.01
2023-01-09T10:07:18.004Z,62.15
2023-01-09T10:09:50.604Z,61.96
2023-01-09T10:12:28.576Z,61.92
2023-01-09T10:14:58.178Z,61.80
2023-01-09T10:17:41.860Z,61.63
2023-01-09T10:20:33.244Z,62.47
2023-01-09T10:23:11.453Z,62.05
2023-01-09T10:25:44.950Z,61.85
2023-01-09T10:28:32.707Z,62.32
2023-01-09T10:31:05.710Z,62.30
2023-01-09T10:33:50.613Z,62.26
2023-01-09T10:36:39.037Z,62.60
2023-01-09T10:39:13.246Z,62.33
2023-01-09T10:41:47.622Z,62.37
2023-01-09T10:44:21.281Z,62.50
2023-01-09T10:46:54.711Z,62.56
2023-01-09T10:49:25.409Z,62.69
2023-01-09T10:52:01.100Z,62.67
2023-01-09T10:54:30.703Z,62.75
2023-01-09T10:57:06.565Z,63.27
2023-01-09T10:59:34.449Z,63.15
2023-01-09T11:02:02.518Z,62.89
2023-01-09T11:04:35.759Z,63.10
2023-01-09T11:07:07.522Z,63.04
2023-01-09T11:09:57.011Z,63.18
2023-01-09T11:12:26.972Z,63.36
2023-01-09T11:14:54.996Z,63.88
2023-01-09T11:17:27.114Z,62.81
2023-01-09T11:20:15.906Z,63.21
2023-01-09T11:22:47.119Z,63.22
2023-01-09T11:25:17.037Z,63.42
2023-01-09T11:27:45.056Z,63.25
2023-01-09T11:30:21.746Z,63.03
2023-01-09T11:32:49.814Z,63.45
2023-01-09T11:35:22.656Z,63.33
2023-01-09T11:38:00.018Z,63.62
2023-01-09T11:40:29.854Z,63.55
2023-01-09T11:43:07.266Z,63.58
2023-01-09T11:45:37.090Z,63.40
2023-01-09T11:48:18.551Z,63.72
2023-01-09T11:50:57.790Z,63.88
2023-01-09T11:53:26.456Z,64.10
2023-01-09T11:56:01.797Z,64.35
2023-01-09T11:58:31.280Z,63.97
2023-01-09T12:01:10.633Z,63.92
2023-01-09T12:04:00.875Z,64.66
2023-01-09T12:06:42.367Z,64.36
2023-01-09T12:09:20.101Z,64.46
2023-01-09T12:11:56.262Z,64.76
2023-01-09T12:14:36.915Z,64.90
2023-01-09T12:17:32.218Z,64.41
2023-01-09T12:20:17.958Z,64.46
2023-01-09T12:22:51.153Z,64.34
2023-01-09T12:25:30.184Z,64.02
2023-01-09T12:28:16.416Z,64.41
2023-01-09T12:31:00.818Z,64.94
2023-01-09T12:33:40.771Z,64.76
2023-01-09T12:36:17.865Z,65.02
2023-01-09T12:38:56.905Z,64.78
2023-01-09T12:41:48.404Z,64.88
2023-01-09T12:44:36.460Z,64.56
2023-01-09T12:47:23.476Z,64.74
2023-01-09T12:50:03.350Z,64.33
2023-01-09T12:52:35.525Z,64.00
2023-01-09T12:55:14.392Z,63.92
2023-01-09T12:57:45.074Z,63.90
2023-01-09T13:00:19.115Z,63.84
2023-01-09T13:03:03.546Z,64.17
2023-01-09T13:05:38.595Z,63.88
2023-01-09T13:08:13.177Z,63.56
2023-01-09T13:10:46.539Z,63.61
2023-01-09T13:13:20.104Z,63.38
2023-01-09T13:15:52.215Z,63.30
2023-01-09T13:18:24.126Z,63.42
2023-01-09T13:20:56.761Z,63.46
2023-01-09T13:23:34.646Z,63.22
2023-01-09T13:26:07.756Z,62.99
2023-01-09T13:28:38.272Z,63.00
2023-01-09T13:31:31.866Z,63.02
2023-01-09T13:34:02.909Z,62.95
2023-01-09T13:36:34.998Z,62.91
2023-01-09T13:39:03.661Z,62.63
2023-01-09T13:41:50.345Z,62.35
2023-01-09T13:44:24.776Z,62.14
2023-01-09T13:46:55.557Z,62.13
2023-01-09T13:50:06.544Z,62.24
2023-01-09T13:52:37.927Z,61.98
2023-01-09T13:55:35.628Z,61.92
2023-01-09T13:58:23.503Z,61.62
2023-01-09T14:00:54.391Z,62.35
2023-01-09T14:03:26.738Z,61.95
2023-01-09T14:06:20.122Z,61.87
2023-01-09T14:08:50.793Z,61.85
2023-01-09T14:11:21.589Z,62.14
2023-01-09T14:14:02.346Z,61.96
2023-01-09T14:16:32.260Z,61.83
2023-01-09T14:19:06.274Z,61.79
2023-01-09T14:21:50.899Z,61.97
2023-01-09T14:24:27.278Z,61.90
2023-01-09T14:26:57.862Z,62.03
2023-01-09T14:29:41.613Z,62.14
2023-01-09T14:32:43.896Z,62.11
2023-01-09T14:35:16.945Z,62.22
2023-01-09T14:37:47.279Z,62.20
2023-01-09T14:40:23.676Z,62.41
2023-01-09T14:42:54.496Z,62.70
2023-01-09T14:45:26.784Z,62.75
2023-01-09T14:47:59.290Z,63.03
2023-01-09T14:50:34.717Z,63.44
2023-01-09T14:53:05.597Z,62.72
2023-01-09T14:55:41.902Z,62.78
2023-01-09T14:58:14.220Z,62.78
2023-01-09T15:00:50.211Z,63.05
2023-01-09T15:03:18.384Z,62.98
2023-01-09T15:05:47.988Z,63.56
2023-01-09T15:08:20.008Z,64.48
2023-01-09T15:10:50.383Z,64.25
2023-01-09T15:13:24.248Z,64.99
2023-01-09T15:15:53.764Z,65.53
2023-01-09T15:18:25.331Z,64.79
2023-01-09T15:20:55.886Z,65.42
2023-01-09T15:23:28.689Z,65.08
2023-01-09T15:25:57.774Z,64.83
2023-01-09T15:28:30.283Z,64.80
2023-01-09T15:31:04.019Z,65.04
2023-01-09T15:33:33.663Z,64.98
2023-01-09T15:36:06.439Z,64.73
2023-01-09T15:38:36.672Z,65.06
2023-01-09T15:41:09.758Z,64.97
2023-01-09T15:43:42.582Z,65.49
2023-01-09T15:46:13.147Z,65.49
2023-01-09T15:48:40.879Z,65.24
2023-01-09T15:51:12.154Z,65.32
2023-01-09T15:53:42.229Z,65.36
2023-01-09T15:56:19.915Z,65.42
2023-01-09T15:58:49.421Z,65.26
2023-01-09T16:01:31.813Z,65.06
2023-01-09T16:04:06.726Z,64.87
2023-01-09T16:06:37.708Z,64.95
2023-01-09T16:09:15.991Z,65.35
2023-01-09T16:11:48.959Z,65.24
2023-01-09T16:14:21.770Z,65.34
2023-01-09T16:16:53.860Z,65.66
2023-01-09T16:19:32.621Z,65.62
2023-01-09T16:22:02.290Z,65.74
2023-01-09T16:24:40.127Z,65.89
2023-01-09T16:27:31.209Z,66.05
2023-01-09T16:30:00.381Z,66.16
2023-01-09T16:35:23.415Z,66.46
2023-01-09T16:37:51.842Z,66.51
2023-01-09T16:40:27.986Z,66.37
2023-01-09T16:43:03.999Z,66.40
2023-01-09T16:45:35.697Z,66.65
2023-01-09T16:48:13.060Z,66.79
2023-01-09T16:50:41.470Z,66.82
2023-01-09T16:53:16.072Z,66.37
2023-01-09T16:55:44.472Z,66.65
2023-01-09T16:58:18.382Z,66.35
2023-01-09T17:00:46.523Z,65.98
2023-01-09T17:03:17.595Z,66.23
2023-01-09T17:05:45.745Z,66.54
2023-01-09T17:08:21.936Z,66.62
2023-01-09T17:10:49.877Z,66.60
2023-01-09T17:13:17.750Z,66.20
2023-01-09T17:15:46.785Z,66.45
2023-01-09T17:18:18.187Z,66.24
2023-01-09T17:20:49.540Z,66.46
2023-01-09T17:23:20.090Z,66.37
2023-01-09T17:26:06.606Z,66.14
2023-01-09T17:28:35.660Z,66.58
2023-01-09T17:31:06.609Z,66.59
2023-01-09T17:33:36.660Z,66.28
2023-01-09T17:36:07.776Z,66.42
2023-01-09T17:38:35.575Z,66.51
2023-01-09T17:41:03.466Z,66.67
2023-01-09T17:43:32.893Z,66.77
2023-01-09T17:46:01.117Z,67.31
2023-01-09T17:48:29.563Z,67.22
2023-01-09T17:50:59.463Z,66.89
2023-01-09T17:53:29.458Z,67.09
2023-01-09T17:55:57.401Z,67.18
2023-01-09T17:58:29.173Z,66.64
2023-01-09T18:00:57.959Z,66.59
2023-01-09T18:03:31.180Z,66.43
2023-01-09T18:06:01.278Z,65.66
2023-01-09T18:08:29.355Z,65.18
2023-01-09T18:10:57.291Z,64.99
2023-01-09T18:13:25.141Z,64.93
2023-01-09T18:15:52.996Z,64.31
2023-01-09T18:18:22.735Z,63.68
2023-01-09T18:20:51.072Z,64.44
2023-01-09T18:23:20.892Z,64.13
2023-01-09T18:25:49.077Z,63.99
2023-01-09T18:28:18.527Z,64.13
2023-01-09T18:30:47.835Z,64.19
2023-01-09T18:33:17.608Z,63.57
2023-01-09T18:35:46.433Z,64.26
2023-01-09T18:38:14.282Z,64.66
2023-01-09T18:40:43.758Z,64.24
2023-01-09T18:43:12.102Z,64.50
2023-01-09T18:45:40.627Z,65.00
2023-01-09T18:48:09.978Z,65.32
2023-01-09T18:50:37.908Z,65.55
2023-01-09T18:53:06.273Z,65.29
2023-01-09T18:55:34.188Z,66.05
2023-01-09T18:58:03.788Z,66.23
2023-01-09T19:00:32.117Z,66.23
2023-01-09T19:03:00.052Z,65.98
2023-01-09T19:05:27.851Z,66.25
2023-01-09T19:07:55.768Z,65.70
2023-01-09T19:10:23.840Z,65.46
2023-01-09T19:12:51.714Z,65.45
2023-01-09T19:15:20.947Z,65.41
2023-01-09T19:17:50.569Z,65.39
2023-01-09T19:20:19.021Z,65.27
2023-01-09T19:22:46.944Z,65.26
2023-01-09T19:25:14.953Z,65.39
2023-01-09T19:27:42.830Z,65.74
2023-01-09T19:30:12.234Z,65.59
2023-01-09T19:32:42.449Z,64.80
2023-01-09T19:35:10.538Z,65.31
2023-01-09T19:37:38.481Z,65.28
2023-01-09T19:40:07.472Z,65.27
2023-01-09T19:42:35.274Z,65.30
2023-01-09T19:45:03.360Z,65.33
2023-01-09T19:47:35.702Z,65.36
2023-01-09T19:50:05.999Z,65.08
2023-01-09T19:52:33.940Z,65.37
2023-01-09T19:55:01.965Z,65.13
2023-01-09T19:57:29.931Z,65.39
2023-01-09T19:59:57.849Z,65.37
2023-01-09T20:02:25.824Z,65.17
2023-01-09T20:04:53.868Z,65.04
2023-01-09T20:07:23.163Z,65.17
2023-01-09T20:09:52.114Z,65.00
2023-01-09T20:12:19.938Z,64.71
2023-01-09T20:14:47.700Z,64.69
2023-01-09T20:17:16.014Z,64.82
2023-01-09T20:19:45.541Z,64.71
2023-01-09T20:22:15.687Z,64.43
2023-01-09T20:24:45.339Z,64.68
2023-01-09T20:27:13.286Z,64.45
2023-01-09T20:29:41.031Z,64.53
2023-01-09T20:32:10.414Z,64.12
2023-01-09T20:34:38.140Z,64.08
2023-01-09T20:37:06.028Z,64.05
2023-01-09T20:39:36.179Z,64.09
2023-01-09T20:42:05.534Z,64.00
2023-01-09T20:44:33.280Z,64.36
2023-01-09T20:47:01.529Z,64.35
2023-01-09T20:49:29.391Z,64.49
2023-01-09T20:51:57.216Z,64.15
2023-01-09T20:54:25.801Z,64.40
2023-01-09T20:56:55.067Z,63.71
2023-01-09T20:59:25.485Z,63.91
2023-01-09T21:01:53.337Z,64.63
2023-01-09T21:04:21.257Z,64.09
2023-01-09T21:06:50.889Z,64.23
2023-01-09T21:09:20.361Z,64.09
2023-01-09T21:11:48.315Z,64.83
2023-01-09T21:14:16.723Z,64.75
2023-01-09T21:16:54.042Z,64.25
2023-01-09T21:19:23.120Z,64.32
2023-01-09T21:21:53.105Z,64.68
2023-01-09T21:24:21.398Z,64.72
2023-01-09T21:26:49.340Z,64.71
2023-01-09T21:29:17.552Z,64.75
2023-01-09T21:31:47.162Z,64.29
2023-01-09T21:34:17.613Z,64.76
2023-01-09T21:36:48.667Z,64.46
2023-01-09T21:39:17.950Z,64.86
2023-01-09T21:42:03.362Z,64.67
2023-01-09T21:44:49.043Z,64.51
2023-01-09T21:47:18.328Z,64.42
2023-01-09T21:49:46.291Z,64.14
2023-01-09T21:52:15.933Z,64.05
2023-01-09T21:54:43.861Z,64.20
2023-01-09T21:57:12.952Z,64.06
2023-01-09T21:59:41.394Z,63.98
2023-01-09T22:02:12.600Z,64.38
2023-01-09T22:04:42.995Z,63.63
2023-01-09T22:07:11.420Z,64.11
2023-01-09T22:09:39.299Z,63.71
2023-01-09T22:12:08.206Z,64.03
2023-01-09T22:14:36.418Z,63.73
2023-01-09T22:17:05.353Z,64.02
2023-01-09T22:19:33.698Z,63.87
2023-01-09T22:22:07.201Z,64.24
2023-01-09T22:24:36.073Z,64.52
2023-01-09T22:27:04.114Z,64.44
2023-01-09T22:29:31.913Z,64.49
2023-01-09T22:32:00.448Z,64.77
2023-01-09T22:34:28.433Z,64.37
2023-01-09T22:36:56.198Z,64.18
2023-01-09T22:39:26.852Z,64.61
2023-01-09T22:41:55.288Z,64.62
2023-01-09T22:44:23.666Z,64.32
2023-01-09T22:46:51.995Z,64.17
2023-01-09T22:49:19.924Z,64.18
2023-01-09T22:51:47.748Z,63.62
2023-01-09T22:54:16.567Z,63.72
2023-01-09T22:56:45.842Z,63.52
2023-01-09T22:59:13.868Z,63.46
2023-01-09T23:01:42.283Z,63.89
2023-01-09T23:04:13.177Z,63.52
2023-01-09T23:06:41.170Z,63.13
2023-01-09T23:09:09.108Z,63.47
2023-01-09T23:11:54.437Z,63.61
2023-01-09T23:14:24.247Z,63.05
2023-01-09T23:16:52.219Z,63.26
2023-01-09T23:19:20.088Z,63.04
2023-01-09T23:21:48.586Z,63.38
2023-01-09T23:24:17.883Z,63.13
2023-01-09T23:26:46.556Z,63.30
2023-01-09T23:29:15.850Z,63.16
2023-01-09T23:31:45.404Z,63.20
2023-01-09T23:34:16.280Z,63.15
2023-01-09T23:36:44.460Z,63.39
2023-01-09T23:39:12.231Z,63.37
2023-01-09T23:41:58.984Z,63.13
2023-01-09T23:44:27.096Z,63.55
2023-01-09T23:46:56.422Z,63.07
2023-01-09T23:49:24.588Z,63.36
2023-01-09T23:51:52.574Z,63.48
2023-01-09T23:54:20.471Z,63.70
2023-01-09T23:56:48.909Z,63.40
2023-01-09T23:59:18.221Z,63.43
